Accueil
METAR-TAF:

METAR-TAF

Aéroports :

Gore Bay, Ontario, Canada

latitude: 45-53N, longitude: 082-34W, altitude: 193 m

Observation

Le bulletin a été fait il y a 28 minutes, à 09:00 UTC
Vent 8 kt de est/nord-est
Température 9°C
Humidité 93%
Pression 1010 hPa
Visibilité: 8.0 km
Ciel couvert à une hauteur de 1000 ft
pluie faible, brume

METAR: CYZE 210900Z AUTO 07008KT 5SM -RA BR OVC010 09/08 A2983 RMK SLP107

Heure: 05:28 (09:28 UTC)

Prévision

Le bulletin a été fait il y a 13 heures et 50 minutes, à 19:38 UTC
Prévision valable du 20 à 20 UTC au 20 à 22 UTC
Vent 6 kt de nord/nord-est
Visibilité: 10 km
Quelques nuages à une hauteur de 1500 ft
Nuages épars à une hauteur de 6000 ft

TAF: CYZE 201938Z 2020/2022 02006KT P6SM FEW015 SCT060 RMK FCST BASED ON AUTO OBS. NXT FCST WILL BE ISSUED AT 210945Z

Observations et prévisions météorologiques de plus de 4000 aéroports (messages METAR et TAF).

Les stations disponibles sont représentées par des disques jaunes et rouges sur la carte.

Passer la souris dessus pour voir le nom de la station.

Cliquer dessus pour voir les observations et prévisions météorologiques.

Pour changer de carte: cliquez sur les boutons verts avec une croix noire pour zoomer, sur le bouton vert avec un tiret pour effectuer un zoom arrière, ou sur les flèches vertes pour les cartes adjacentes.


METAR-TAF: